East Craftsbury, Vermont
Current Conditions -  °F | °C
As of 8:35 PM on Sunday 23 Nov 2014 (Local Time) from KCDA Reporting Station
Haze Haze  
Wind Chill: 37°   Ceiling: 4700
Heat Index: 37°   Visibility: 0.75mi
Dew Point: 35°   Wind: 0mph
Humidity: 93%   Direction: NA
Pressure: 30.08"   Gusts: NA
Location:  44.6462°N, 72.3558°W
Report Text: KCDA 240135Z AUTO 00000KT 3/4SM BR OVC047 03/02 A3008 RMK AO2 T00250015
Loading
Personal Weather Stations






























Interactive Weather Map New forecast layout! Learn more

10-Day Weather Forecast

Advertisements
Track Severe Weather on mobile